sensor_id;sensor_type;location;lat;lon;timestamp;pressure;altitude;pressure_sealevel;temperature;humidity
48204;BME280;33994;50.998;5.864;2023-04-25T00:00:51;100570.59;;;7.76;75.71
48204;BME280;33994;50.998;5.864;2023-04-25T00:03:54;100569.69;;;7.80;75.63
48204;BME280;33994;50.998;5.864;2023-04-25T00:06:58;100568.88;;;7.73;75.55
48204;BME280;33994;50.998;5.864;2023-04-25T00:10:02;100579.34;;;7.67;75.82
48204;BME280;33994;50.998;5.864;2023-04-25T00:13:05;100568.91;;;7.66;75.98
48204;BME280;33994;50.998;5.864;2023-04-25T00:16:09;100573.28;;;7.67;75.79
48204;BME280;33994;50.998;5.864;2023-04-25T00:19:12;100570.69;;;7.64;75.75
48204;BME280;33994;50.998;5.864;2023-04-25T00:22:15;100583.69;;;7.64;75.69
48204;BME280;33994;50.998;5.864;2023-04-25T00:25:19;100583.72;;;7.58;75.69
48204;BME280;33994;50.998;5.864;2023-04-25T00:28:22;100575.09;;;7.49;75.82
48204;BME280;33994;50.998;5.864;2023-04-25T00:31:26;100579.50;;;7.44;76.30
48204;BME280;33994;50.998;5.864;2023-04-25T00:34:30;100582.13;;;7.38;76.56
48204;BME280;33994;50.998;5.864;2023-04-25T00:37:33;100578.66;;;7.33;76.74
48204;BME280;33994;50.998;5.864;2023-04-25T00:40:36;100581.25;;;7.31;77.05
48204;BME280;33994;50.998;5.864;2023-04-25T00:43:39;100575.22;;;7.25;77.07
48204;BME280;33994;50.998;5.864;2023-04-25T00:46:44;100573.53;;;7.21;77.43
48204;BME280;33994;50.998;5.864;2023-04-25T00:49:47;100576.97;;;7.20;77.67
48204;BME280;33994;50.998;5.864;2023-04-25T00:52:50;100583.94;;;7.21;77.53
48204;BME280;33994;50.998;5.864;2023-04-25T00:55:54;100583.91;;;7.16;77.65
48204;BME280;33994;50.998;5.864;2023-04-25T00:58:57;100586.53;;;7.16;77.88
48204;BME280;33994;50.998;5.864;2023-04-25T01:02:02;100580.47;;;7.16;77.87
48204;BME280;33994;50.998;5.864;2023-04-25T01:05:05;100580.44;;;7.25;78.00
48204;BME280;33994;50.998;5.864;2023-04-25T01:08:09;100576.94;;;7.26;77.67
48204;BME280;33994;50.998;5.864;2023-04-25T01:11:12;100580.44;;;7.22;77.84
48204;BME280;33994;50.998;5.864;2023-04-25T01:14:15;100583.94;;;7.21;77.66
48204;BME280;33994;50.998;5.864;2023-04-25T01:17:19;100583.03;;;7.20;77.87
48204;BME280;33994;50.998;5.864;2023-04-25T01:20:23;100579.59;;;7.21;78.08
48204;BME280;33994;50.998;5.864;2023-04-25T01:23:28;100583.00;;;7.29;78.18
48204;BME280;33994;50.998;5.864;2023-04-25T01:26:31;100582.97;;;7.31;78.13
48204;BME280;33994;50.998;5.864;2023-04-25T01:29:35;100587.28;;;7.35;78.00
48204;BME280;33994;50.998;5.864;2023-04-25T01:32:39;100582.97;;;7.39;77.97
48204;BME280;33994;50.998;5.864;2023-04-25T01:35:43;100589.03;;;7.36;77.58
48204;BME280;33994;50.998;5.864;2023-04-25T01:38:47;100589.91;;;7.37;78.19
48204;BME280;33994;50.998;5.864;2023-04-25T01:41:50;100585.56;;;7.34;77.90
48204;BME280;33994;50.998;5.864;2023-04-25T01:44:53;100587.34;;;7.29;77.95
48204;BME280;33994;50.998;5.864;2023-04-25T01:47:57;100584.78;;;7.21;78.11
48204;BME280;33994;50.998;5.864;2023-04-25T01:51:00;100586.53;;;7.16;78.53
48204;BME280;33994;50.998;5.864;2023-04-25T01:54:05;100586.53;;;7.16;78.59
48204;BME280;33994;50.998;5.864;2023-04-25T01:57:08;100598.66;;;7.13;78.79
48204;BME280;33994;50.998;5.864;2023-04-25T02:00:12;100600.44;;;7.14;78.99
48204;BME280;33994;50.998;5.864;2023-04-25T02:03:16;100608.22;;;7.14;78.70
48204;BME280;33994;50.998;5.864;2023-04-25T02:06:19;100600.44;;;7.11;78.62
48204;BME280;33994;50.998;5.864;2023-04-25T02:09:24;100600.44;;;7.09;78.59
48204;BME280;33994;50.998;5.864;2023-04-25T02:12:27;100598.72;;;7.06;78.25
48204;BME280;33994;50.998;5.864;2023-04-25T02:15:31;100596.13;;;7.03;78.67
48204;BME280;33994;50.998;5.864;2023-04-25T02:18:34;100600.47;;;7.00;78.74
48204;BME280;33994;50.998;5.864;2023-04-25T02:21:37;100607.41;;;6.93;79.04
48204;BME280;33994;50.998;5.864;2023-04-25T02:24:42;100613.50;;;6.92;78.95
48204;BME280;33994;50.998;5.864;2023-04-25T02:27:45;100607.44;;;6.89;79.14
48204;BME280;33994;50.998;5.864;2023-04-25T02:30:48;100616.97;;;6.85;79.26
48204;BME280;33994;50.998;5.864;2023-04-25T02:33:51;100609.19;;;6.82;79.56
48204;BME280;33994;50.998;5.864;2023-04-25T02:36:54;100610.94;;;6.83;79.61
48204;BME280;33994;50.998;5.864;2023-04-25T02:39:59;100610.06;;;6.84;79.89
48204;BME280;33994;50.998;5.864;2023-04-25T02:43:02;100611.81;;;6.84;79.55
48204;BME280;33994;50.998;5.864;2023-04-25T02:46:05;100615.25;;;6.84;79.78
48204;BME280;33994;50.998;5.864;2023-04-25T02:49:08;100623.06;;;6.82;79.82
48204;BME280;33994;50.998;5.864;2023-04-25T02:52:12;100620.47;;;6.81;79.79
48204;BME280;33994;50.998;5.864;2023-04-25T02:55:16;100626.53;;;6.80;79.60
48204;BME280;33994;50.998;5.864;2023-04-25T02:58:20;100620.47;;;6.81;80.08
48204;BME280;33994;50.998;5.864;2023-04-25T03:01:23;100613.53;;;6.77;80.32
48204;BME280;33994;50.998;5.864;2023-04-25T03:04:26;100617.03;;;6.76;80.34
48204;BME280;33994;50.998;5.864;2023-04-25T03:07:29;100618.75;;;6.74;80.73
48204;BME280;33994;50.998;5.864;2023-04-25T03:10:33;100618.75;;;6.75;80.60
48204;BME280;33994;50.998;5.864;2023-04-25T03:13:37;100619.63;;;6.71;80.54
48204;BME280;33994;50.998;5.864;2023-04-25T03:16:40;100619.63;;;6.71;80.79
48204;BME280;33994;50.998;5.864;2023-04-25T03:19:43;100629.19;;;6.68;80.76
48204;BME280;33994;50.998;5.864;2023-04-25T03:22:46;100628.31;;;6.69;80.85
48204;BME280;33994;50.998;5.864;2023-04-25T03:25:51;100623.97;;;6.68;80.97
48204;BME280;33994;50.998;5.864;2023-04-25T03:28:54;100623.13;;;6.67;81.11
48204;BME280;33994;50.998;5.864;2023-04-25T03:31:57;100618.78;;;6.65;81.01
48204;BME280;33994;50.998;5.864;2023-04-25T03:35:01;100622.25;;;6.62;81.20
48204;BME280;33994;50.998;5.864;2023-04-25T03:38:04;100620.50;;;6.63;81.09
48204;BME280;33994;50.998;5.864;2023-04-25T03:41:08;100626.56;;;6.62;81.09
48204;BME280;33994;50.998;5.864;2023-04-25T03:44:11;100622.25;;;6.64;81.33
48204;BME280;33994;50.998;5.864;2023-04-25T03:47:15;100628.31;;;6.64;81.17
48204;BME280;33994;50.998;5.864;2023-04-25T03:50:18;100629.19;;;6.65;81.02
48204;BME280;33994;50.998;5.864;2023-04-25T03:53:21;100626.59;;;6.63;81.01
48204;BME280;33994;50.998;5.864;2023-04-25T03:56:26;100628.31;;;6.64;81.09
48204;BME280;33994;50.998;5.864;2023-04-25T03:59:29;100634.38;;;6.65;80.78
48204;BME280;33994;50.998;5.864;2023-04-25T04:02:32;100634.38;;;6.62;80.63
48204;BME280;33994;50.998;5.864;2023-04-25T04:05:35;100642.19;;;6.60;80.70
48204;BME280;33994;50.998;5.864;2023-04-25T04:08:38;100642.19;;;6.60;80.87
48204;BME280;33994;50.998;5.864;2023-04-25T04:11:43;100643.03;;;6.61;80.95
48204;BME280;33994;50.998;5.864;2023-04-25T04:14:46;100651.72;;;6.60;81.18
48204;BME280;33994;50.998;5.864;2023-04-25T04:17:49;100648.25;;;6.57;81.30
48204;BME280;33994;50.998;5.864;2023-04-25T04:20:52;100646.53;;;6.56;81.48
48204;BME280;33994;50.998;5.864;2023-04-25T04:23:56;100650.00;;;6.55;81.34
48204;BME280;33994;50.998;5.864;2023-04-25T04:27:00;100644.78;;;6.54;81.66
48204;BME280;33994;50.998;5.864;2023-04-25T04:30:04;100654.28;;;6.55;81.58
48204;BME280;33994;50.998;5.864;2023-04-25T04:33:07;100655.19;;;6.52;81.79
48204;BME280;33994;50.998;5.864;2023-04-25T04:36:11;100649.09;;;6.58;82.12
48204;BME280;33994;50.998;5.864;2023-04-25T04:39:14;100660.38;;;6.65;81.73
48204;BME280;33994;50.998;5.864;2023-04-25T04:42:18;100662.94;;;6.69;81.58
48204;BME280;33994;50.998;5.864;2023-04-25T04:45:21;100663.81;;;6.70;81.32
48204;BME280;33994;50.998;5.864;2023-04-25T04:48:25;100671.63;;;6.64;80.97
48204;BME280;33994;50.998;5.864;2023-04-25T04:51:28;100669.03;;;6.61;80.96
48204;BME280;33994;50.998;5.864;2023-04-25T04:54:31;100675.09;;;6.56;80.95
48204;BME280;33994;50.998;5.864;2023-04-25T04:57:35;100684.63;;;6.53;81.08
48204;BME280;33994;50.998;5.864;2023-04-25T05:00:39;100698.47;;;6.50;81.03
48204;BME280;33994;50.998;5.864;2023-04-25T05:03:42;100688.09;;;6.49;80.65
48204;BME280;33994;50.998;5.864;2023-04-25T05:06:45;100688.94;;;6.46;80.41
48204;BME280;33994;50.998;5.864;2023-04-25T05:09:48;100696.75;;;6.45;80.32
48204;BME280;33994;50.998;5.864;2023-04-25T05:12:53;100696.75;;;6.46;80.36
48204;BME280;33994;50.998;5.864;2023-04-25T05:15:56;100695.88;;;6.49;79.92
48204;BME280;33994;50.998;5.864;2023-04-25T05:18:59;100704.56;;;6.49;79.77
48204;BME280;33994;50.998;5.864;2023-04-25T05:22:03;100706.28;;;6.46;79.93
48204;BME280;33994;50.998;5.864;2023-04-25T05:25:07;100720.13;;;6.46;79.76
48204;BME280;33994;50.998;5.864;2023-04-25T05:28:12;100719.28;;;6.44;79.61
48204;BME280;33994;50.998;5.864;2023-04-25T05:31:15;100734.88;;;6.44;79.98
48204;BME280;33994;50.998;5.864;2023-04-25T05:34:18;100729.69;;;6.44;79.77
48204;BME280;33994;50.998;5.864;2023-04-25T05:37:22;100730.53;;;6.48;79.49
48204;BME280;33994;50.998;5.864;2023-04-25T05:40:25;100732.25;;;6.50;79.31
48204;BME280;33994;50.998;5.864;2023-04-25T05:43:29;100739.19;;;6.53;78.93
48204;BME280;33994;50.998;5.864;2023-04-25T05:46:32;100746.13;;;6.54;78.97
48204;BME280;33994;50.998;5.864;2023-04-25T05:49:36;100750.44;;;6.61;78.69
48204;BME280;33994;50.998;5.864;2023-04-25T05:52:39;100750.44;;;6.63;78.53
48204;BME280;33994;50.998;5.864;2023-04-25T05:55:42;100747.00;;;6.64;78.38
48204;BME280;33994;50.998;5.864;2023-04-25T05:58:47;100748.72;;;6.65;78.03
48204;BME280;33994;50.998;5.864;2023-04-25T06:01:50;100756.50;;;6.80;77.76
48204;BME280;33994;50.998;5.864;2023-04-25T06:04:53;100755.63;;;6.89;76.98
48204;BME280;33994;50.998;5.864;2023-04-25T06:07:56;100769.50;;;6.98;76.79
48204;BME280;33994;50.998;5.864;2023-04-25T06:10:59;100762.56;;;7.03;76.16
48204;BME280;33994;50.998;5.864;2023-04-25T06:14:04;100767.75;;;7.03;75.73
48204;BME280;33994;50.998;5.864;2023-04-25T06:17:07;100766.03;;;7.05;75.79
48204;BME280;33994;50.998;5.864;2023-04-25T06:20:11;100761.69;;;7.04;75.82
48204;BME280;33994;50.998;5.864;2023-04-25T06:23:14;100764.25;;;7.15;75.71
48204;BME280;33994;50.998;5.864;2023-04-25T06:26:17;100769.44;;;7.26;75.56
48204;BME280;33994;50.998;5.864;2023-04-25T06:29:22;100778.97;;;7.36;74.74
48204;BME280;33994;50.998;5.864;2023-04-25T06:32:25;100778.97;;;7.39;74.24
48204;BME280;33994;50.998;5.864;2023-04-25T06:35:28;100772.94;;;7.43;74.24
48204;BME280;33994;50.998;5.864;2023-04-25T06:38:31;100778.97;;;7.48;73.81
48204;BME280;33994;50.998;5.864;2023-04-25T06:41:34;100780.72;;;7.51;73.61
48204;BME280;33994;50.998;5.864;2023-04-25T06:44:38;100788.50;;;7.56;72.64
48204;BME280;33994;50.998;5.864;2023-04-25T06:47:42;100794.53;;;7.58;72.39
48204;BME280;33994;50.998;5.864;2023-04-25T06:50:45;100802.38;;;7.59;71.97
48204;BME280;33994;50.998;5.864;2023-04-25T06:53:48;100797.13;;;7.64;71.94
48204;BME280;33994;50.998;5.864;2023-04-25T06:56:51;100797.13;;;7.62;71.46
48204;BME280;33994;50.998;5.864;2023-04-25T06:59:56;100801.50;;;7.60;70.98
48204;BME280;33994;50.998;5.864;2023-04-25T07:02:59;100797.19;;;7.48;71.38
48204;BME280;33994;50.998;5.864;2023-04-25T07:06:02;100809.31;;;7.52;71.33
48204;BME280;33994;50.998;5.864;2023-04-25T07:09:05;100808.41;;;7.58;71.37
48204;BME280;33994;50.998;5.864;2023-04-25T07:12:08;100805.84;;;7.60;71.25
48204;BME280;33994;50.998;5.864;2023-04-25T07:15:13;100804.94;;;7.61;70.32
48204;BME280;33994;50.998;5.864;2023-04-25T07:18:16;100814.53;;;7.59;69.79
48204;BME280;33994;50.998;5.864;2023-04-25T07:21:19;100812.75;;;7.64;69.57
48204;BME280;33994;50.998;5.864;2023-04-25T07:24:22;100824.00;;;7.66;68.81
48204;BME280;33994;50.998;5.864;2023-04-25T07:27:25;100822.28;;;7.71;68.68
48204;BME280;33994;50.998;5.864;2023-04-25T07:30:30;100824.00;;;7.73;68.47
48204;BME280;33994;50.998;5.864;2023-04-25T07:33:33;100826.59;;;7.75;67.91
48204;BME280;33994;50.998;5.864;2023-04-25T07:36:36;100832.69;;;7.74;67.90
48204;BME280;33994;50.998;5.864;2023-04-25T07:39:39;100828.31;;;7.79;68.03
48204;BME280;33994;50.998;5.864;2023-04-25T07:42:43;100839.59;;;7.83;67.75
48204;BME280;33994;50.998;5.864;2023-04-25T07:45:48;100840.47;;;7.86;67.00
48204;BME280;33994;50.998;5.864;2023-04-25T07:48:51;100852.59;;;7.87;66.58
48204;BME280;33994;50.998;5.864;2023-04-25T07:51:54;100847.38;;;7.92;65.68
48204;BME280;33994;50.998;5.864;2023-04-25T07:54:57;100859.53;;;7.90;65.07
48204;BME280;33994;50.998;5.864;2023-04-25T07:58:00;100847.34;;;8.01;64.96
48204;BME280;33994;50.998;5.864;2023-04-25T08:01:05;100857.75;;;8.02;64.47
48204;BME280;33994;50.998;5.864;2023-04-25T08:04:08;100862.94;;;8.06;64.51
48204;BME280;33994;50.998;5.864;2023-04-25T08:07:11;100866.38;;;8.14;64.53
48204;BME280;33994;50.998;5.864;2023-04-25T08:10:14;100865.53;;;8.16;64.38
48204;BME280;33994;50.998;5.864;2023-04-25T08:13:18;100880.25;;;8.22;64.63
48204;BME280;33994;50.998;5.864;2023-04-25T08:16:22;100874.16;;;8.23;64.42
48204;BME280;33994;50.998;5.864;2023-04-25T08:19:25;100883.66;;;8.33;64.40
48204;BME280;33994;50.998;5.864;2023-04-25T08:22:29;100894.00;;;8.48;63.92
48204;BME280;33994;50.998;5.864;2023-04-25T08:25:33;100891.38;;;8.50;63.46
48204;BME280;33994;50.998;5.864;2023-04-25T08:28:37;100891.41;;;8.51;62.99
48204;BME280;33994;50.998;5.864;2023-04-25T08:31:41;100893.09;;;8.57;62.15
48204;BME280;33994;50.998;5.864;2023-04-25T08:34:45;100897.44;;;8.63;61.30
48204;BME280;33994;50.998;5.864;2023-04-25T08:37:49;100895.66;;;8.65;61.82
48204;BME280;33994;50.998;5.864;2023-04-25T08:40:53;100898.28;;;8.60;61.31
48204;BME280;33994;50.998;5.864;2023-04-25T08:43:57;100902.66;;;8.57;61.09
48204;BME280;33994;50.998;5.864;2023-04-25T08:47:04;100912.22;;;8.53;60.44
48204;BME280;33994;50.998;5.864;2023-04-25T08:50:08;100915.75;;;8.47;60.07
48204;BME280;33994;50.998;5.864;2023-04-25T08:53:12;100920.06;;;8.53;60.04
48204;BME280;33994;50.998;5.864;2023-04-25T08:56:17;100918.31;;;8.57;59.72
48204;BME280;33994;50.998;5.864;2023-04-25T08:59:21;100933.91;;;8.64;59.88
48204;BME280;33994;50.998;5.864;2023-04-25T09:02:25;100928.66;;;8.70;58.92
48204;BME280;33994;50.998;5.864;2023-04-25T09:05:29;100941.66;;;8.81;58.74
48204;BME280;33994;50.998;5.864;2023-04-25T09:08:32;100941.56;;;8.96;59.33
48204;BME280;33994;50.998;5.864;2023-04-25T09:11:36;100952.88;;;8.92;58.79
48204;BME280;33994;50.998;5.864;2023-04-25T09:14:39;100954.66;;;8.86;59.44
48204;BME280;33994;50.998;5.864;2023-04-25T09:17:44;100952.91;;;8.83;60.05
48204;BME280;33994;50.998;5.864;2023-04-25T09:20:47;100953.75;;;8.91;60.23
48204;BME280;33994;50.998;5.864;2023-04-25T09:23:50;100959.78;;;9.01;59.28
48204;BME280;33994;50.998;5.864;2023-04-25T09:26:53;100965.03;;;8.96;58.64
48204;BME280;33994;50.998;5.864;2023-04-25T09:29:58;100968.53;;;8.92;58.75
48204;BME280;33994;50.998;5.864;2023-04-25T09:33:07;100971.22;;;8.79;58.70
48204;BME280;33994;50.998;5.864;2023-04-25T09:36:10;100972.94;;;8.81;59.58
48204;BME280;33994;50.998;5.864;2023-04-25T09:39:13;100979.00;;;8.83;60.03
48204;BME280;33994;50.998;5.864;2023-04-25T09:42:17;100986.78;;;8.88;59.43
48204;BME280;33994;50.998;5.864;2023-04-25T09:45:20;100989.44;;;8.86;59.51
48204;BME280;33994;50.998;5.864;2023-04-25T09:48:26;100989.44;;;8.86;59.44
48204;BME280;33994;50.998;5.864;2023-04-25T09:51:30;100993.75;;;8.93;59.58
48204;BME280;33994;50.998;5.864;2023-04-25T09:54:33;100986.72;;;9.01;59.50
48204;BME280;33994;50.998;5.864;2023-04-25T09:57:36;100980.53;;;9.15;59.05
48204;BME280;33994;50.998;5.864;2023-04-25T10:00:40;100985.72;;;9.21;57.68
48204;BME280;33994;50.998;5.864;2023-04-25T10:03:46;100994.47;;;9.17;56.46
48204;BME280;33994;50.998;5.864;2023-04-25T10:06:52;100993.59;;;9.16;54.89
48204;BME280;33994;50.998;5.864;2023-04-25T10:10:01;100992.69;;;9.23;54.88
48204;BME280;33994;50.998;5.864;2023-04-25T10:13:05;100990.97;;;9.27;55.23
48204;BME280;33994;50.998;5.864;2023-04-25T10:16:08;100998.75;;;9.32;55.16
48204;BME280;33994;50.998;5.864;2023-04-25T10:19:13;100999.66;;;9.21;53.78
48204;BME280;33994;50.998;5.864;2023-04-25T10:22:20;101005.78;;;9.14;53.64
48204;BME280;33994;50.998;5.864;2023-04-25T10:25:26;101004.13;;;9.04;54.11
48204;BME280;33994;50.998;5.864;2023-04-25T10:28:56;101007.63;;;8.98;53.93
48204;BME280;33994;50.998;5.864;2023-04-25T10:31:49;101006.78;;;8.93;54.77
48204;BME280;33994;50.998;5.864;2023-04-25T10:34:52;101008.50;;;8.91;55.24
48204;BME280;33994;50.998;5.864;2023-04-25T10:38:00;101008.50;;;8.91;55.64
48204;BME280;33994;50.998;5.864;2023-04-25T10:41:04;101011.16;;;8.88;55.89
48204;BME280;33994;50.998;5.864;2023-04-25T10:44:08;101023.34;;;8.85;55.77
48204;BME280;33994;50.998;5.864;2023-04-25T10:47:12;101013.78;;;8.85;54.92
48204;BME280;33994;50.998;5.864;2023-04-25T10:50:15;101019.84;;;8.89;54.73
48204;BME280;33994;50.998;5.864;2023-04-25T10:53:18;101016.34;;;8.94;53.76
48204;BME280;33994;50.998;5.864;2023-04-25T10:56:24;101013.72;;;9.00;52.51
48204;BME280;33994;50.998;5.864;2023-04-25T10:59:27;101016.31;;;9.00;52.67
48204;BME280;33994;50.998;5.864;2023-04-25T11:02:32;101012.78;;;9.03;52.59
48204;BME280;33994;50.998;5.864;2023-04-25T11:05:40;101021.47;;;9.11;52.69
48204;BME280;33994;50.998;5.864;2023-04-25T11:08:48;101023.13;;;9.21;51.79
48204;BME280;33994;50.998;5.864;2023-04-25T11:11:53;101018.81;;;9.19;51.66
48204;BME280;33994;50.998;5.864;2023-04-25T11:15:00;101022.28;;;9.15;51.23
48204;BME280;33994;50.998;5.864;2023-04-25T11:18:04;101025.78;;;9.17;52.41
48204;BME280;33994;50.998;5.864;2023-04-25T11:21:07;101013.53;;;9.34;52.46
48204;BME280;33994;50.998;5.864;2023-04-25T11:24:11;101020.34;;;9.54;52.21
48204;BME280;33994;50.998;5.864;2023-04-25T11:27:14;101020.31;;;9.57;52.69
48204;BME280;33994;50.998;5.864;2023-04-25T11:30:18;101013.25;;;9.72;52.89
48204;BME280;33994;50.998;5.864;2023-04-25T11:33:25;101014.81;;;9.89;52.94
48204;BME280;33994;50.998;5.864;2023-04-25T11:36:28;101015.59;;;10.00;52.88
48204;BME280;33994;50.998;5.864;2023-04-25T11:39:31;101018.94;;;10.13;52.80
48204;BME280;33994;50.998;5.864;2023-04-25T11:42:36;101024.97;;;10.21;52.50
48204;BME280;33994;50.998;5.864;2023-04-25T11:45:39;101019.75;;;10.19;52.47
48204;BME280;33994;50.998;5.864;2023-04-25T11:48:44;101024.94;;;10.24;52.30
48204;BME280;33994;50.998;5.864;2023-04-25T11:51:48;101015.34;;;10.26;51.10
48204;BME280;33994;50.998;5.864;2023-04-25T11:54:51;101014.50;;;10.21;51.16
48204;BME280;33994;50.998;5.864;2023-04-25T11:57:54;101020.50;;;10.31;51.82
48204;BME280;33994;50.998;5.864;2023-04-25T12:00:58;101023.94;;;10.36;51.38
48204;BME280;33994;50.998;5.864;2023-04-25T12:04:11;101024.94;;;10.24;50.47
48204;BME280;33994;50.998;5.864;2023-04-25T12:07:15;101019.72;;;10.21;50.53
48204;BME280;33994;50.998;5.864;2023-04-25T12:10:18;101025.91;;;10.15;50.09
48204;BME280;33994;50.998;5.864;2023-04-25T12:13:23;101017.13;;;10.22;50.43
48204;BME280;33994;50.998;5.864;2023-04-25T12:16:26;101023.19;;;10.26;50.88
48204;BME280;33994;50.998;5.864;2023-04-25T12:19:33;101018.84;;;10.23;50.60
48204;BME280;33994;50.998;5.864;2023-04-25T12:22:37;101026.75;;;10.19;50.66
48204;BME280;33994;50.998;5.864;2023-04-25T12:25:41;101016.38;;;10.08;49.70
48204;BME280;33994;50.998;5.864;2023-04-25T12:28:45;101024.97;;;10.18;50.56
48204;BME280;33994;50.998;5.864;2023-04-25T12:31:49;101024.03;;;10.30;49.64
48204;BME280;33994;50.998;5.864;2023-04-25T12:34:53;101030.94;;;10.34;48.58
48204;BME280;33994;50.998;5.864;2023-04-25T12:37:56;101037.03;;;10.34;48.28
48204;BME280;33994;50.998;5.864;2023-04-25T12:41:00;101031.00;;;10.28;48.53
48204;BME280;33994;50.998;5.864;2023-04-25T12:44:03;101044.19;;;10.18;49.08
48204;BME280;33994;50.998;5.864;2023-04-25T12:47:06;101059.06;;;10.09;49.41
48204;BME280;33994;50.998;5.864;2023-04-25T12:50:11;101060.97;;;9.91;50.90
48204;BME280;33994;50.998;5.864;2023-04-25T12:53:14;101078.53;;;9.71;51.79
48204;BME280;33994;50.998;5.864;2023-04-25T12:56:17;101069.13;;;9.50;52.56
48204;BME280;33994;50.998;5.864;2023-04-25T12:59:20;101062.19;;;9.41;52.98
48204;BME280;33994;50.998;5.864;2023-04-25T13:02:23;101063.97;;;9.39;53.30
48204;BME280;33994;50.998;5.864;2023-04-25T13:05:28;101071.75;;;9.41;53.60
48204;BME280;33994;50.998;5.864;2023-04-25T13:08:31;101073.50;;;9.40;53.64
48204;BME280;33994;50.998;5.864;2023-04-25T13:11:34;101068.28;;;9.43;53.68
48204;BME280;33994;50.998;5.864;2023-04-25T13:14:37;101063.94;;;9.45;53.88
48204;BME280;33994;50.998;5.864;2023-04-25T13:17:40;101069.06;;;9.55;54.05
48204;BME280;33994;50.998;5.864;2023-04-25T13:20:45;101068.06;;;9.74;53.96
48204;BME280;33994;50.998;5.864;2023-04-25T13:23:48;101067.91;;;9.91;53.81
48204;BME280;33994;50.998;5.864;2023-04-25T13:26:51;101076.59;;;9.94;53.59
48204;BME280;33994;50.998;5.864;2023-04-25T13:29:54;101085.47;;;9.77;55.02
48204;BME280;33994;50.998;5.864;2023-04-25T13:32:57;101075.16;;;9.58;55.63
48204;BME280;33994;50.998;5.864;2023-04-25T13:36:03;101074.31;;;9.52;56.00
48204;BME280;33994;50.998;5.864;2023-04-25T13:39:06;101079.56;;;9.47;55.69
48204;BME280;33994;50.998;5.864;2023-04-25T13:42:09;101083.91;;;9.49;56.21
48204;BME280;33994;50.998;5.864;2023-04-25T13:45:13;101081.31;;;9.46;56.22
48204;BME280;33994;50.998;5.864;2023-04-25T13:48:16;101076.09;;;9.45;56.57
48204;BME280;33994;50.998;5.864;2023-04-25T13:51:20;101073.47;;;9.48;56.31
48204;BME280;33994;50.998;5.864;2023-04-25T13:54:24;101081.31;;;9.49;55.66
48204;BME280;33994;50.998;5.864;2023-04-25T13:57:27;101072.59;;;9.47;55.29
48204;BME280;33994;50.998;5.864;2023-04-25T14:00:30;101076.94;;;9.52;55.34
48204;BME280;33994;50.998;5.864;2023-04-25T14:03:33;101079.53;;;9.55;55.46
48204;BME280;33994;50.998;5.864;2023-04-25T14:06:38;101077.78;;;9.54;55.17
48204;BME280;33994;50.998;5.864;2023-04-25T14:09:41;101084.75;;;9.55;55.22
48204;BME280;33994;50.998;5.864;2023-04-25T14:12:44;101082.97;;;9.57;55.10
48204;BME280;33994;50.998;5.864;2023-04-25T14:15:48;101082.97;;;9.60;55.15
48204;BME280;33994;50.998;5.864;2023-04-25T14:18:51;101074.22;;;9.64;54.25
48204;BME280;33994;50.998;5.864;2023-04-25T14:21:55;101077.75;;;9.61;53.10
48204;BME280;33994;50.998;5.864;2023-04-25T14:24:58;101080.28;;;9.67;53.61
48204;BME280;33994;50.998;5.864;2023-04-25T14:28:02;101078.56;;;9.66;51.76
48204;BME280;33994;50.998;5.864;2023-04-25T14:31:04;101079.44;;;9.64;50.75
48204;BME280;33994;50.998;5.864;2023-04-25T14:34:08;101071.59;;;9.68;50.28
48204;BME280;33994;50.998;5.864;2023-04-25T14:37:12;101073.25;;;9.76;50.02
48204;BME280;33994;50.998;5.864;2023-04-25T14:40:15;101077.63;;;9.75;49.36
48204;BME280;33994;50.998;5.864;2023-04-25T14:43:19;101076.75;;;9.78;49.69
48204;BME280;33994;50.998;5.864;2023-04-25T16:51:01;101137.88;;;9.51;52.01
48204;BME280;33994;50.998;5.864;2023-04-25T16:54:05;101142.22;;;9.48;51.77
48204;BME280;33994;50.998;5.864;2023-04-25T16:57:08;101129.22;;;9.42;51.73
48204;BME280;33994;50.998;5.864;2023-04-25T17:00:12;101137.88;;;9.44;51.48
48204;BME280;33994;50.998;5.864;2023-04-25T17:03:15;101128.25;;;9.53;50.95
48204;BME280;33994;50.998;5.864;2023-04-25T17:06:20;101132.66;;;9.51;49.67
48204;BME280;33994;50.998;5.864;2023-04-25T17:09:23;101130.03;;;9.49;49.74
48204;BME280;33994;50.998;5.864;2023-04-25T17:12:26;101136.13;;;9.49;49.45
48204;BME280;33994;50.998;5.864;2023-04-25T17:15:29;101143.97;;;9.49;49.04
48204;BME280;33994;50.998;5.864;2023-04-25T17:18:32;101142.25;;;9.45;48.67
48204;BME280;33994;50.998;5.864;2023-04-25T17:21:37;101150.09;;;9.42;48.56
48204;BME280;33994;50.998;5.864;2023-04-25T17:24:40;101144.88;;;9.41;48.92
48204;BME280;33994;50.998;5.864;2023-04-25T17:27:44;101150.97;;;9.40;48.88
48204;BME280;33994;50.998;5.864;2023-04-25T17:30:47;101157.06;;;9.42;49.08
48204;BME280;33994;50.998;5.864;2023-04-25T17:33:50;101157.03;;;9.43;49.29
48204;BME280;33994;50.998;5.864;2023-04-25T17:36:55;101159.66;;;9.40;50.00
48204;BME280;33994;50.998;5.864;2023-04-25T17:39:58;101166.63;;;9.40;50.37
48204;BME280;33994;50.998;5.864;2023-04-25T17:43:01;101172.75;;;9.36;50.69
48204;BME280;33994;50.998;5.864;2023-04-25T17:46:04;101168.41;;;9.32;51.05
48204;BME280;33994;50.998;5.864;2023-04-25T17:49:07;101169.28;;;9.31;51.28
48204;BME280;33994;50.998;5.864;2023-04-25T17:52:12;101165.81;;;9.29;50.63
48204;BME280;33994;50.998;5.864;2023-04-25T17:55:15;101174.53;;;9.28;50.71
48204;BME280;33994;50.998;5.864;2023-04-25T17:58:18;101177.09;;;9.24;50.61
48204;BME280;33994;50.998;5.864;2023-04-25T18:01:22;101178.84;;;9.21;50.68
48204;BME280;33994;50.998;5.864;2023-04-25T18:04:25;101189.31;;;9.15;50.83
48204;BME280;33994;50.998;5.864;2023-04-25T18:07:29;101185.84;;;9.07;50.86
48204;BME280;33994;50.998;5.864;2023-04-25T18:10:32;101180.69;;;9.00;51.08
48204;BME280;33994;50.998;5.864;2023-04-25T18:13:36;101190.25;;;8.94;51.51
48204;BME280;33994;50.998;5.864;2023-04-25T18:16:39;101192.00;;;8.90;51.63